Time;durP1;ratioP1;P1;durP2;ratioP2;P2;SDS_P1;SDS_P2;PMS_P1;PMS_P2;Temp;Humidity;BMP_temperature;BMP_pressure;BME280_temperature;BME280_humidity;BME280_pressure;Samples;Min_cycle;Max_cycle;Signal;HPM_P1;HPM_P2
2022/01/29 00:02:27;;;;;;;3.47;1.38;;;25.00;52.40;;;;;;5046990;28;20191;-46
2022/01/29 00:04:59;;;;;;;6.47;1.85;;;25.00;52.40;;;;;;5037990;28;20265;-40
2022/01/29 00:07:30;;;;;;;6.03;2.25;;;25.10;52.60;;;;;;5039712;28;20200;-40
2022/01/29 00:10:04;;;;;;;4.25;1.75;;;25.10;52.50;;;;;;5040585;28;20200;-44
2022/01/29 00:12:34;;;;;;;8.00;2.03;;;25.10;52.90;;;;;;5033590;28;20204;-43
2022/01/29 00:15:05;;;;;;;4.95;1.75;;;25.20;53.00;;;;;;5025092;28;20228;-51
2022/01/29 00:17:36;;;;;;;7.97;2.17;;;25.20;53.00;;;;;;5033222;28;20200;-47
2022/01/29 00:20:09;;;;;;;3.85;1.52;;;25.20;52.90;;;;;;5032961;28;20709;-43
2022/01/29 00:22:40;;;;;;;6.18;1.80;;;25.30;52.90;;;;;;5028267;28;20246;-45
2022/01/29 00:25:12;;;;;;;4.53;1.70;;;25.30;52.90;;;;;;5028285;28;20220;-45
2022/01/29 00:27:42;;;;;;;5.97;1.83;;;25.30;52.90;;;;;;5023038;28;20722;-43
2022/01/29 00:30:17;;;;;;;4.28;1.70;;;25.40;52.90;;;;;;5029953;28;20197;-42
2022/01/29 00:32:48;;;;;;;5.32;1.70;;;25.40;52.90;;;;;;5032253;28;20197;-45
2022/01/29 00:35:20;;;;;;;4.60;1.88;;;25.50;52.80;;;;;;5029313;28;20692;-43
2022/01/29 00:37:51;;;;;;;4.13;1.95;;;25.50;52.80;;;;;;5047822;28;20245;-43
2022/01/29 00:40:22;;;;;;;5.80;1.98;;;25.50;52.80;;;;;;5040921;28;20199;-46
2022/01/29 00:42:53;;;;;;;3.92;1.77;;;25.60;52.80;;;;;;5036319;28;20200;-45
2022/01/29 00:45:23;;;;;;;7.63;2.33;;;25.60;52.80;;;;;;5042149;28;20288;-45
2022/01/29 00:47:54;;;;;;;6.07;2.03;;;25.60;52.70;;;;;;5031832;28;20212;-44
2022/01/29 00:50:27;;;;;;;3.83;1.60;;;25.70;52.60;;;;;;5049554;28;20253;-41
2022/01/29 00:52:58;;;;;;;4.30;1.70;;;25.70;52.80;;;;;;5036630;28;20196;-41
2022/01/29 00:55:31;;;;;;;4.57;2.10;;;25.70;52.70;;;;;;5016829;28;20773;-50
2022/01/29 00:58:02;;;;;;;4.20;1.70;;;25.80;52.70;;;;;;5047084;28;20249;-40
2022/01/29 01:00:32;;;;;;;5.93;2.17;;;25.80;52.90;;;;;;5039819;28;20207;-41
2022/01/29 01:03:03;;;;;;;5.25;1.90;;;25.80;52.90;;;;;;5049699;28;20605;-47
2022/01/29 01:05:35;;;;;;;3.30;1.90;;;25.80;52.90;;;;;;5036559;28;20282;-41
2022/01/29 01:08:07;;;;;;;4.50;1.95;;;25.90;53.00;;;;;;5032334;28;20199;-42
2022/01/29 01:10:38;;;;;;;4.07;1.80;;;25.90;52.90;;;;;;5039533;28;20228;-41
2022/01/29 01:13:08;;;;;;;4.15;1.98;;;26.00;53.00;;;;;;5035193;28;20199;-49
2022/01/29 01:15:39;;;;;;;4.22;1.75;;;26.00;52.90;;;;;;5031648;28;20293;-40
2022/01/29 01:18:10;;;;;;;6.70;1.90;;;26.00;52.90;;;;;;5045000;28;20541;-43
2022/01/29 01:20:42;;;;;;;5.68;1.85;;;26.10;52.90;;;;;;5042406;28;20212;-42
2022/01/29 01:23:13;;;;;;;5.70;2.13;;;26.10;52.80;;;;;;5030209;28;20212;-42
2022/01/29 01:25:43;;;;;;;4.30;1.70;;;26.10;52.70;;;;;;5036911;28;20262;-45
2022/01/29 01:28:14;;;;;;;7.05;2.17;;;26.20;52.60;;;;;;5031504;28;20203;-47
2022/01/29 01:30:45;;;;;;;5.35;2.05;;;26.20;52.60;;;;;;5050063;28;20886;-43
2022/01/29 01:33:15;;;;;;;5.55;1.83;;;26.20;52.50;;;;;;5038787;28;20197;-41
2022/01/29 01:35:51;;;;;;;5.35;1.98;;;26.20;52.40;;;;;;5045015;28;20228;-45
2022/01/29 01:38:25;;;;;;;5.53;2.00;;;26.30;52.30;;;;;;5035203;28;20206;-47
2022/01/29 01:41:00;;;;;;;4.72;1.80;;;26.30;52.30;;;;;;5034615;28;20200;-43
2022/01/29 01:43:31;;;;;;;5.95;2.10;;;26.30;52.30;;;;;;5031535;28;20253;-51
2022/01/29 01:46:01;;;;;;;4.78;1.92;;;26.40;52.30;;;;;;5037608;28;20270;-44
2022/01/29 01:48:32;;;;;;;4.90;2.17;;;26.40;52.30;;;;;;5029471;28;20211;-46
2022/01/29 01:51:04;;;;;;;5.70;2.20;;;26.40;52.40;;;;;;5046495;28;20664;-43
2022/01/29 01:53:35;;;;;;;5.82;2.00;;;26.40;53.00;;;;;;5038408;28;20749;-42
2022/01/29 01:56:06;;;;;;;4.65;2.20;;;26.50;52.50;;;;;;5043829;28;20224;-50
2022/01/29 01:58:36;;;;;;;4.40;1.90;;;26.50;52.40;;;;;;5045341;28;20203;-41
2022/01/29 02:01:10;;;;;;;3.38;1.80;;;26.50;52.40;;;;;;5038150;28;20189;-43
2022/01/29 02:03:40;;;;;;;4.22;1.80;;;26.50;52.30;;;;;;5028715;28;20278;-47
2022/01/29 02:06:19;;;;;;;6.07;1.95;;;26.60;52.30;;;;;;5034675;28;20259;-44
2022/01/29 02:08:57;;;;;;;4.40;1.90;;;26.60;52.20;;;;;;5033525;28;20196;-45
2022/01/29 02:11:28;;;;;;;8.05;2.35;;;26.70;52.30;;;;;;5029172;28;20283;-51
2022/01/29 02:14:00;;;;;;;4.35;1.80;;;26.70;52.20;;;;;;5033212;28;20196;-47
2022/01/29 02:16:32;;;;;;;7.53;2.05;;;26.70;52.10;;;;;;5031353;28;20773;-49
2022/01/29 02:19:02;;;;;;;5.85;1.90;;;26.80;52.10;;;;;;5033361;28;20224;-56
2022/01/29 02:21:38;;;;;;;3.70;1.77;;;26.80;51.90;;;;;;5033885;28;20709;-46
2022/01/29 02:24:09;;;;;;;5.18;1.95;;;26.80;51.90;;;;;;5038482;28;20662;-45
2022/01/29 02:26:39;;;;;;;5.40;2.00;;;26.80;51.70;;;;;;5028073;28;20217;-55
2022/01/29 02:29:10;;;;;;;9.07;2.13;;;26.80;51.80;;;;;;5027022;28;20232;-49
2022/01/29 02:31:49;;;;;;;4.63;2.13;;;26.80;51.80;;;;;;5046975;28;20196;-46
2022/01/29 02:34:20;;;;;;;5.70;2.10;;;26.80;52.50;;;;;;5039849;28;20188;-42
2022/01/29 02:36:55;;;;;;;8.40;2.35;;;26.90;51.70;;;;;;5039479;28;20643;-48
2022/01/29 02:39:26;;;;;;;6.97;2.42;;;26.90;51.90;;;;;;5044130;28;20258;-49
2022/01/29 02:41:59;;;;;;;6.32;2.20;;;26.90;52.00;;;;;;5027218;28;20258;-47
2022/01/29 02:44:31;;;;;;;4.55;2.40;;;26.90;52.00;;;;;;5027411;28;20283;-54
2022/01/29 02:47:15;;;;;;;5.93;2.42;;;27.00;52.00;;;;;;5029866;28;20195;-49
2022/01/29 02:49:45;;;;;;;4.07;1.80;;;27.00;51.90;;;;;;5029837;28;20200;-41
2022/01/29 02:52:18;;;;;;;5.00;2.20;;;27.00;51.80;;;;;;5027407;28;20196;-43
2022/01/29 02:54:48;;;;;;;6.53;2.30;;;27.00;51.80;;;;;;5028902;28;20851;-45
2022/01/29 02:57:20;;;;;;;4.45;1.77;;;27.10;51.70;;;;;;5027720;28;20286;-50
2022/01/29 02:59:51;;;;;;;5.05;2.00;;;27.10;51.70;;;;;;5028526;28;20279;-44
2022/01/29 03:02:22;;;;;;;4.78;2.40;;;27.10;51.70;;;;;;5028613;28;20200;-44
2022/01/29 03:04:52;;;;;;;6.97;2.22;;;27.10;51.70;;;;;;5028610;28;20285;-46
2022/01/29 03:07:25;;;;;;;6.63;2.50;;;27.10;51.70;;;;;;5030903;28;20686;-43
2022/01/29 03:09:55;;;;;;;7.15;2.05;;;27.10;51.60;;;;;;5029359;28;20667;-44
2022/01/29 03:12:26;;;;;;;5.22;2.15;;;27.20;51.60;;;;;;5027307;28;20215;-41
2022/01/29 03:14:57;;;;;;;5.07;1.92;;;27.20;51.60;;;;;;5030726;28;20228;-53
2022/01/29 03:17:27;;;;;;;6.00;2.45;;;27.20;51.60;;;;;;5027716;28;20318;-41
2022/01/29 03:19:58;;;;;;;6.35;2.03;;;27.30;51.80;;;;;;5029559;28;20651;-48
2022/01/29 03:22:30;;;;;;;5.55;2.13;;;27.30;51.90;;;;;;5030171;28;20261;-53
2022/01/29 03:25:01;;;;;;;5.45;2.03;;;27.30;51.90;;;;;;5028567;28;20691;-47
2022/01/29 03:27:31;;;;;;;3.75;1.75;;;27.40;52.00;;;;;;5028846;28;20598;-50
2022/01/29 03:30:02;;;;;;;4.32;1.98;;;27.40;52.00;;;;;;5027646;28;20204;-46
2022/01/29 03:32:33;;;;;;;4.78;2.05;;;27.40;52.00;;;;;;5026974;28;20192;-42
2022/01/29 03:35:03;;;;;;;5.00;2.22;;;27.50;52.00;;;;;;5027936;28;20220;-44
2022/01/29 03:37:36;;;;;;;4.63;2.00;;;27.50;51.90;;;;;;5026627;28;20290;-45
2022/01/29 03:40:08;;;;;;;6.90;2.00;;;27.50;51.70;;;;;;5025643;28;20192;-45
2022/01/29 03:42:44;;;;;;;3.85;2.10;;;27.50;51.70;;;;;;5027548;28;20196;-43
2022/01/29 03:45:19;;;;;;;6.05;2.25;;;27.60;51.60;;;;;;5027120;28;20218;-44
2022/01/29 03:47:49;;;;;;;4.88;2.17;;;27.60;51.50;;;;;;5028486;28;20300;-47
2022/01/29 03:50:20;;;;;;;6.55;2.00;;;27.60;51.40;;;;;;5027078;28;20208;-41
2022/01/29 03:52:52;;;;;;;7.18;2.42;;;27.70;51.40;;;;;;5027213;28;20609;-50
2022/01/29 03:55:23;;;;;;;6.32;2.50;;;27.80;51.40;;;;;;5029501;28;20216;-49
2022/01/29 03:57:54;;;;;;;4.55;2.20;;;27.80;51.30;;;;;;5027656;28;20258;-46
2022/01/29 04:00:24;;;;;;;5.72;2.00;;;27.90;51.30;;;;;;5029686;28;20253;-44
2022/01/29 04:02:55;;;;;;;5.43;2.03;;;27.90;51.20;;;;;;5029921;28;20251;-43
2022/01/29 04:05:26;;;;;;;5.40;2.00;;;27.90;51.10;;;;;;5027746;28;20235;-51
2022/01/29 04:07:58;;;;;;;4.45;1.70;;;28.00;51.10;;;;;;5027896;28;20291;-42
2022/01/29 04:10:29;;;;;;;4.40;2.00;;;28.10;51.10;;;;;;5029369;28;20204;-51
2022/01/29 04:13:00;;;;;;;3.65;1.88;;;28.00;51.00;;;;;;5031654;28;20326;-46
2022/01/29 04:15:30;;;;;;;4.68;1.70;;;28.10;51.20;;;;;;5031867;28;20606;-45
2022/01/29 04:18:01;;;;;;;5.15;2.05;;;28.10;51.80;;;;;;5033330;28;20276;-49
2022/01/29 04:20:32;;;;;;;3.45;1.92;;;28.20;51.20;;;;;;5031226;28;20229;-52
2022/01/29 04:23:07;;;;;;;4.10;1.88;;;28.20;51.10;;;;;;5032222;28;20200;-44
2022/01/29 04:25:41;;;;;;;3.47;2.00;;;28.30;51.20;;;;;;5031279;28;20689;-44
2022/01/29 04:28:13;;;;;;;2.67;1.73;;;28.30;51.20;;;;;;5031327;28;20656;-50
2022/01/29 04:30:47;;;;;;;4.10;1.90;;;28.30;51.10;;;;;;5031084;28;20774;-49
2022/01/29 04:33:28;;;;;;;4.85;1.80;;;28.30;51.00;;;;;;5030219;28;20207;-46
2022/01/29 04:35:59;;;;;;;5.57;1.85;;;28.40;51.00;;;;;;5031350;28;20623;-50
2022/01/29 04:38:33;;;;;;;4.82;2.10;;;28.40;51.00;;;;;;5032167;28;20204;-42
2022/01/29 04:41:05;;;;;;;3.05;1.90;;;28.50;51.00;;;;;;5029905;28;20236;-44
2022/01/29 04:43:37;;;;;;;3.60;1.75;;;28.50;51.00;;;;;;5031123;28;20192;-51
2022/01/29 04:46:08;;;;;;;3.38;2.00;;;28.60;51.00;;;;;;5032007;28;20216;-45
2022/01/29 04:48:38;;;;;;;5.45;2.13;;;28.60;51.00;;;;;;5033864;28;20652;-53
2022/01/29 04:51:09;;;;;;;9.35;3.08;;;28.60;50.90;;;;;;5039979;28;20199;-45
2022/01/29 04:53:42;;;;;;;6.68;2.67;;;28.70;50.90;;;;;;5046281;28;20416;-45
2022/01/29 04:56:12;;;;;;;6.88;2.53;;;28.70;50.90;;;;;;5054349;22;20225;-43
2022/01/29 04:58:43;;;;;;;5.05;2.42;;;28.70;50.80;;;;;;5033472;28;20243;-43
2022/01/29 05:01:14;;;;;;;5.72;2.50;;;28.80;50.90;;;;;;5014381;28;20259;-44
2022/01/29 05:03:44;;;;;;;6.68;2.25;;;28.80;50.80;;;;;;5043084;28;20741;-42
2022/01/29 05:06:15;;;;;;;4.57;2.03;;;28.80;50.80;;;;;;5046252;28;20275;-51
2022/01/29 05:08:50;;;;;;;6.20;2.75;;;28.80;50.80;;;;;;5037955;28;20245;-48
2022/01/29 05:11:21;;;;;;;3.58;2.15;;;28.90;50.80;;;;;;5039206;28;20199;-47
2022/01/29 05:13:51;;;;;;;5.68;1.92;;;28.90;50.90;;;;;;5045611;28;20209;-46
2022/01/29 05:27:29;;;;;;;6.65;2.97;;;29.10;51.00;;;;;;5034791;28;20215;-50
2022/01/29 05:30:00;;;;;;;6.63;2.65;;;29.20;51.00;;;;;;5029432;28;20207;-47
2022/01/29 05:32:30;;;;;;;4.85;2.72;;;29.20;50.90;;;;;;5042807;28;20193;-48
2022/01/29 05:35:01;;;;;;;6.30;2.67;;;29.20;50.90;;;;;;5034129;28;20223;-43
2022/01/29 05:37:31;;;;;;;5.20;3.20;;;29.20;50.90;;;;;;5012589;28;20266;-44
2022/01/29 05:40:04;;;;;;;6.50;3.40;;;29.30;50.90;;;;;;5043422;28;20218;-46
2022/01/29 05:42:35;;;;;;;6.80;3.60;;;29.30;50.90;;;;;;5042760;28;20207;-46
2022/01/29 05:45:05;;;;;;;5.13;3.17;;;29.30;50.90;;;;;;5028140;28;20355;-43
2022/01/29 05:47:36;;;;;;;6.82;3.40;;;29.40;50.90;;;;;;5034526;28;20254;-40
2022/01/29 05:50:07;;;;;;;5.97;3.65;;;29.40;50.80;;;;;;5032149;28;20191;-47
2022/01/29 05:52:38;;;;;;;4.65;3.17;;;29.40;50.80;;;;;;5033615;28;20198;-48
2022/01/29 05:55:11;;;;;;;8.07;3.35;;;29.40;50.80;;;;;;5032720;28;20281;-46
2022/01/29 05:57:42;;;;;;;5.53;3.25;;;29.50;50.80;;;;;;5014354;28;20220;-46
2022/01/29 06:00:13;;;;;;;5.75;3.20;;;29.50;50.80;;;;;;5036006;28;20270;-50
2022/01/29 06:02:43;;;;;;;5.10;3.13;;;29.50;50.70;;;;;;5031558;28;20196;-49
2022/01/29 06:05:14;;;;;;;4.65;3.15;;;29.50;50.70;;;;;;5047766;28;20597;-42
2022/01/29 06:07:45;;;;;;;6.07;3.15;;;29.50;50.70;;;;;;5038457;28;20203;-49
2022/01/29 06:10:17;;;;;;;5.43;3.28;;;29.50;50.70;;;;;;5044559;28;20204;-47
2022/01/29 06:12:48;;;;;;;6.53;3.22;;;29.50;50.70;;;;;;5032388;28;20644;-48
2022/01/29 06:15:18;;;;;;;6.80;3.13;;;29.50;50.50;;;;;;5031100;28;20228;-42
2022/01/29 06:17:49;;;;;;;6.97;3.03;;;29.50;50.60;;;;;;5029350;28;20277;-43
2022/01/29 06:20:19;;;;;;;5.15;3.28;;;29.60;50.80;;;;;;5041453;28;20204;-48
2022/01/29 06:22:50;;;;;;;6.28;3.00;;;29.60;50.80;;;;;;5040942;28;20212;-49
2022/01/29 06:25:23;;;;;;;8.23;4.40;;;29.60;50.80;;;;;;5048211;28;20223;-44
2022/01/29 06:27:54;;;;;;;8.20;3.63;;;29.60;50.80;;;;;;5038277;28;20551;-47
2022/01/29 06:30:24;;;;;;;7.68;3.50;;;29.60;50.70;;;;;;5043151;28;20262;-47
2022/01/29 06:32:55;;;;;;;6.20;3.25;;;29.60;50.70;;;;;;5030563;28;20192;-44
2022/01/29 06:35:26;;;;;;;7.93;3.70;;;29.60;50.70;;;;;;5034780;28;20216;-47
2022/01/29 06:37:56;;;;;;;5.57;3.17;;;29.60;50.70;;;;;;5012368;28;20695;-46
2022/01/29 06:40:29;;;;;;;7.85;3.97;;;29.60;50.60;;;;;;5041434;28;20192;-49
2022/01/29 06:43:01;;;;;;;7.95;4.05;;;29.60;50.50;;;;;;5040406;28;20254;-47
2022/01/29 06:45:32;;;;;;;7.28;3.47;;;29.70;50.60;;;;;;5047426;28;20283;-45
2022/01/29 06:48:03;;;;;;;6.10;3.25;;;29.70;50.50;;;;;;5032697;28;20223;-47
2022/01/29 06:50:34;;;;;;;6.70;3.58;;;29.70;50.50;;;;;;5031245;28;20257;-44
2022/01/29 06:53:05;;;;;;;7.57;3.38;;;29.70;50.50;;;;;;5031504;28;20252;-45
2022/01/29 06:55:38;;;;;;;5.75;3.20;;;29.70;50.40;;;;;;5033194;28;20788;-44
2022/01/29 06:58:08;;;;;;;6.13;3.03;;;29.70;50.40;;;;;;5029478;28;20224;-48
2022/01/29 07:00:39;;;;;;;5.80;3.55;;;29.70;50.40;;;;;;5040322;28;20623;-46
2022/01/29 07:03:09;;;;;;;5.80;2.90;;;29.70;50.40;;;;;;5039776;28;20589;-41
2022/01/29 07:05:40;;;;;;;7.68;3.40;;;29.70;50.40;;;;;;5045496;28;20300;-43
2022/01/29 07:08:11;;;;;;;5.97;3.08;;;29.70;50.40;;;;;;5037253;28;20199;-49
2022/01/29 07:10:44;;;;;;;6.97;3.20;;;29.70;50.40;;;;;;5039393;28;20204;-43
2022/01/29 07:13:15;;;;;;;8.70;3.80;;;29.70;50.30;;;;;;5033304;28;20207;-44
2022/01/29 07:15:45;;;;;;;7.40;3.42;;;29.70;50.30;;;;;;5032462;28;21044;-48
2022/01/29 07:18:16;;;;;;;9.35;3.53;;;29.70;50.40;;;;;;5028427;28;20223;-46
2022/01/29 07:20:48;;;;;;;8.20;3.50;;;29.70;50.10;;;;;;5039342;28;20242;-47
2022/01/29 07:23:18;;;;;;;9.98;3.78;;;29.70;50.00;;;;;;5040056;28;20280;-47
2022/01/29 07:25:51;;;;;;;10.93;4.00;;;29.60;50.10;;;;;;5048050;28;20215;-46
2022/01/29 07:28:21;;;;;;;11.60;3.80;;;29.60;50.10;;;;;;5037207;28;20683;-43
2022/01/29 07:30:52;;;;;;;9.02;3.70;;;29.60;50.20;;;;;;5042445;28;20624;-45
2022/01/29 07:33:22;;;;;;;10.18;3.90;;;29.60;50.20;;;;;;5034520;28;20192;-45
2022/01/29 07:35:53;;;;;;;9.40;3.60;;;29.60;50.30;;;;;;5032063;28;20220;-44
2022/01/29 07:38:23;;;;;;;7.38;3.03;;;29.60;50.20;;;;;;5045532;28;20670;-44
2022/01/29 07:40:56;;;;;;;11.48;3.92;;;29.60;50.20;;;;;;5039507;28;20196;-44
2022/01/29 07:43:26;;;;;;;14.15;3.63;;;29.50;50.10;;;;;;5038380;28;20247;-49
2022/01/29 07:45:57;;;;;;;8.70;3.50;;;29.50;50.20;;;;;;5042397;28;20278;-45
2022/01/29 07:48:28;;;;;;;9.27;3.05;;;29.50;50.10;;;;;;5034287;28;20192;-46
2022/01/29 07:50:58;;;;;;;8.18;3.08;;;29.50;50.10;;;;;;5043567;28;20192;-45
2022/01/29 07:53:29;;;;;;;6.78;3.40;;;29.40;50.10;;;;;;5040840;28;20292;-48
2022/01/29 07:56:01;;;;;;;8.63;3.35;;;29.40;50.10;;;;;;5037159;28;20223;-49
2022/01/29 07:58:32;;;;;;;7.85;3.42;;;29.40;50.20;;;;;;5045630;28;20273;-46
2022/01/29 08:01:02;;;;;;;6.15;3.00;;;29.40;50.30;;;;;;5038676;28;20253;-45
2022/01/29 08:03:33;;;;;;;6.53;3.30;;;29.30;50.30;;;;;;5040911;28;20199;-45
2022/01/29 08:06:03;;;;;;;6.97;2.90;;;29.40;50.40;;;;;;5042777;28;20219;-42
2022/01/29 08:08:34;;;;;;;6.47;3.30;;;29.30;50.30;;;;;;5033798;28;20245;-44
2022/01/29 08:11:06;;;;;;;6.32;3.25;;;29.30;50.40;;;;;;5014648;28;20896;-47
2022/01/29 08:13:37;;;;;;;8.43;3.10;;;29.30;50.40;;;;;;5040379;28;20245;-43
2022/01/29 08:16:08;;;;;;;8.27;3.00;;;29.20;50.30;;;;;;5036773;28;20277;-48
2022/01/29 08:18:39;;;;;;;7.78;3.03;;;29.20;50.10;;;;;;5024399;28;20219;-44
2022/01/29 08:21:09;;;;;;;6.07;3.03;;;29.20;50.20;;;;;;5027132;28;20204;-49
2022/01/29 08:23:40;;;;;;;8.68;3.63;;;29.20;50.20;;;;;;5023808;28;20227;-45
2022/01/29 08:26:13;;;;;;;6.75;3.17;;;29.10;50.20;;;;;;5028404;28;20212;-47
2022/01/29 08:28:44;;;;;;;9.90;3.85;;;29.10;50.10;;;;;;5027870;28;20208;-49
2022/01/29 08:31:15;;;;;;;11.40;3.30;;;29.10;50.20;;;;;;5026191;28;20196;-45
2022/01/29 08:33:45;;;;;;;9.02;2.95;;;29.00;50.10;;;;;;5028834;28;20207;-43
2022/01/29 08:36:16;;;;;;;7.63;2.88;;;29.00;50.00;;;;;;5028376;28;20220;-48
2022/01/29 08:38:46;;;;;;;7.88;2.92;;;29.00;50.10;;;;;;5026230;28;20246;-51
2022/01/29 08:41:19;;;;;;;7.05;3.30;;;28.90;50.00;;;;;;5028823;28;20192;-45
2022/01/29 08:43:49;;;;;;;6.95;3.08;;;28.90;50.00;;;;;;5027022;28;20230;-49
2022/01/29 08:46:20;;;;;;;8.27;3.10;;;28.80;50.00;;;;;;5027368;28;20274;-48
2022/01/29 08:48:50;;;;;;;8.43;3.50;;;28.80;50.00;;;;;;5029498;28;20245;-48
2022/01/29 08:51:21;;;;;;;6.63;2.88;;;28.70;50.00;;;;;;5025968;28;20612;-42
2022/01/29 08:53:52;;;;;;;7.97;2.92;;;28.80;50.10;;;;;;5029573;28;20262;-48
2022/01/29 08:56:24;;;;;;;6.97;2.70;;;28.70;50.10;;;;;;5031059;28;20282;-44
2022/01/29 08:58:55;;;;;;;5.63;2.72;;;28.60;50.00;;;;;;5030441;28;20247;-47
2022/01/29 09:01:25;;;;;;;6.50;2.90;;;28.60;50.00;;;;;;5031794;28;20204;-51
2022/01/29 09:03:56;;;;;;;7.00;2.90;;;28.60;50.10;;;;;;5030425;28;20262;-46
2022/01/29 09:06:27;;;;;;;6.13;3.17;;;28.60;50.10;;;;;;5029986;28;20687;-49
2022/01/29 09:08:57;;;;;;;5.82;2.55;;;28.50;50.10;;;;;;5029955;28;20622;-46
2022/01/29 09:11:30;;;;;;;6.38;2.88;;;28.50;50.10;;;;;;5029696;28;20208;-44
2022/01/29 09:14:00;;;;;;;5.53;2.55;;;28.50;50.20;;;;;;5032307;28;20188;-44
2022/01/29 09:16:31;;;;;;;4.97;2.60;;;28.40;50.00;;;;;;5029667;28;20220;-46
2022/01/29 09:19:02;;;;;;;6.07;2.97;;;28.40;50.00;;;;;;5029856;28;20224;-44
2022/01/29 09:21:32;;;;;;;6.63;3.08;;;28.30;50.00;;;;;;5030690;28;20670;-43
2022/01/29 09:24:03;;;;;;;6.50;2.75;;;28.30;50.00;;;;;;5029745;28;20258;-43
2022/01/29 09:26:36;;;;;;;7.18;2.40;;;28.30;50.00;;;;;;5031283;28;20274;-45
2022/01/29 09:29:07;;;;;;;5.75;2.65;;;28.20;50.00;;;;;;5030663;28;20246;-40
2022/01/29 09:31:37;;;;;;;7.43;3.00;;;28.20;50.00;;;;;;5029777;28;20242;-44
2022/01/29 09:34:08;;;;;;;7.50;2.88;;;28.20;50.10;;;;;;5032391;28;20196;-48
2022/01/29 09:36:39;;;;;;;5.15;2.47;;;28.10;50.00;;;;;;5028674;28;20285;-49
2022/01/29 09:39:09;;;;;;;5.50;2.35;;;28.10;50.10;;;;;;5029340;28;20227;-40
2022/01/29 09:41:46;;;;;;;5.00;2.58;;;28.00;50.00;;;;;;5030444;28;20196;-45
2022/01/29 09:44:17;;;;;;;4.78;2.58;;;28.00;50.10;;;;;;5028839;28;20656;-53
2022/01/29 09:46:47;;;;;;;5.07;2.28;;;28.00;50.20;;;;;;5030684;28;20216;-45
2022/01/29 09:49:18;;;;;;;4.93;2.42;;;27.90;50.10;;;;;;5031168;28;20204;-43
2022/01/29 09:51:49;;;;;;;3.70;2.20;;;27.90;50.20;;;;;;5028723;28;20250;-44
2022/01/29 09:54:20;;;;;;;6.57;2.50;;;27.90;50.20;;;;;;5030691;28;20250;-49
2022/01/29 09:56:52;;;;;;;4.65;2.33;;;27.80;50.20;;;;;;5030896;28;20220;-39
2022/01/29 09:59:23;;;;;;;4.55;2.55;;;27.80;50.30;;;;;;5030702;28;20223;-40
2022/01/29 10:01:53;;;;;;;5.93;2.58;;;27.70;50.20;;;;;;5031944;28;20197;-43
2022/01/29 10:04:25;;;;;;;6.10;2.30;;;27.70;50.20;;;;;;5029491;28;20196;-41
2022/01/29 10:07:16;;;;;;;3.90;2.30;;;27.70;50.30;;;;;;5029031;28;20303;-41
2022/01/29 10:09:47;;;;;;;5.05;2.53;;;27.60;50.20;;;;;;5029530;28;20279;-44
2022/01/29 10:12:27;;;;;;;4.53;2.55;;;27.60;50.20;;;;;;5029256;28;20261;-48
2022/01/29 10:15:00;;;;;;;5.85;2.25;;;27.50;50.20;;;;;;5029257;28;21075;-42
2022/01/29 10:17:48;;;;;;;8.60;2.80;;;27.50;50.20;;;;;;5029244;28;20249;-40
2022/01/29 10:20:21;;;;;;;7.25;2.50;;;27.50;50.20;;;;;;5028562;28;20283;-39
2022/01/29 10:22:53;;;;;;;5.82;2.20;;;27.40;50.00;;;;;;5030078;28;20246;-44
2022/01/29 10:25:24;;;;;;;4.22;2.25;;;27.40;50.00;;;;;;5029913;28;20924;-40
2022/01/29 10:28:14;;;;;;;6.35;2.40;;;27.30;50.00;;;;;;5028553;28;20250;-43
2022/01/29 10:31:05;;;;;;;4.68;2.33;;;27.30;50.10;;;;;;5029172;28;20196;-39
2022/01/29 10:33:37;;;;;;;5.38;2.22;;;27.30;50.20;;;;;;5030270;28;20262;-41
2022/01/29 10:36:09;;;;;;;7.75;2.55;;;27.20;50.20;;;;;;5027579;28;20286;-46
2022/01/29 10:38:51;;;;;;;5.85;2.40;;;27.10;50.20;;;;;;5029257;28;20220;-46
2022/01/29 10:41:25;;;;;;;4.20;2.15;;;27.10;50.30;;;;;;5029014;28;20212;-44
2022/01/29 10:44:13;;;;;;;5.30;2.55;;;27.10;50.30;;;;;;5029015;28;20202;-45
2022/01/29 10:46:47;;;;;;;4.30;2.40;;;27.00;50.40;;;;;;5029791;28;20232;-44
2022/01/29 10:49:23;;;;;;;5.25;2.70;;;27.00;50.30;;;;;;5029620;28;20241;-42
2022/01/29 10:52:05;;;;;;;6.18;2.50;;;27.00;50.30;;;;;;5028357;28;20204;-40
2022/01/29 10:54:36;;;;;;;5.60;2.28;;;26.90;50.30;;;;;;5031135;28;20192;-46
2022/01/29 10:57:08;;;;;;;4.53;2.38;;;26.90;50.30;;;;;;5028722;28;20204;-42
2022/01/29 10:59:48;;;;;;;4.85;2.40;;;26.90;50.30;;;;;;5030464;28;20220;-40
2022/01/29 11:02:20;;;;;;;4.22;2.05;;;26.80;50.20;;;;;;5030026;28;20196;-45
2022/01/29 11:04:51;;;;;;;3.67;1.88;;;26.80;50.30;;;;;;5029628;28;20214;-40
2022/01/29 11:07:26;;;;;;;4.95;2.45;;;26.80;50.30;;;;;;5028768;28;20254;-41
2022/01/29 11:09:57;;;;;;;5.05;2.42;;;26.80;50.30;;;;;;5029618;28;20199;-39
2022/01/29 11:12:30;;;;;;;3.72;2.10;;;26.70;50.20;;;;;;5028541;28;20192;-42
2022/01/29 11:15:05;;;;;;;4.47;2.28;;;26.70;50.30;;;;;;5030342;28;20307;-43
2022/01/29 11:17:35;;;;;;;6.78;2.25;;;26.60;50.30;;;;;;5028599;28;20242;-43
2022/01/29 11:20:07;;;;;;;3.60;2.05;;;26.50;50.20;;;;;;5026583;28;20211;-47
2022/01/29 11:22:39;;;;;;;3.42;2.10;;;26.50;50.20;;;;;;5029895;28;20258;-44
2022/01/29 11:25:13;;;;;;;4.68;2.15;;;26.50;50.30;;;;;;5027939;28;20889;-44
2022/01/29 11:27:43;;;;;;;4.88;2.17;;;26.50;50.30;;;;;;5028779;28;20188;-40
2022/01/29 11:30:20;;;;;;;3.67;1.90;;;26.40;50.30;;;;;;5029681;28;20192;-39
2022/01/29 11:32:54;;;;;;;3.70;1.88;;;26.40;50.30;;;;;;5026669;28;20254;-42
2022/01/29 11:35:25;;;;;;;5.00;2.30;;;26.40;50.30;;;;;;5042677;28;20475;-39
2022/01/29 11:38:08;;;;;;;3.78;1.85;;;26.30;50.40;;;;;;5038184;28;20204;-41
2022/01/29 11:40:40;;;;;;;5.95;2.17;;;26.20;50.40;;;;;;5020142;28;20828;-40
2022/01/29 11:43:27;;;;;;;4.45;1.70;;;26.30;50.30;;;;;;5028215;28;20263;-42
2022/01/29 11:46:04;;;;;;;6.18;2.47;;;26.30;50.30;;;;;;5027617;28;20308;-45
2022/01/29 11:48:52;;;;;;;3.78;2.00;;;26.20;50.20;;;;;;5016952;28;20232;-50
2022/01/29 11:51:55;;;;;;;3.33;2.15;;;26.30;50.20;;;;;;5029244;28;20607;-49
2022/01/29 11:55:01;;;;;;;4.03;2.20;;;26.20;50.30;;;;;;5030202;28;20224;-53
2022/01/29 11:57:32;;;;;;;4.32;2.00;;;26.10;50.20;;;;;;5025608;28;20203;-51
2022/01/29 12:00:38;;;;;;;4.40;1.90;;;26.10;50.30;;;;;;5023587;28;20236;-44
2022/01/29 12:03:31;;;;;;;3.42;1.95;;;26.10;50.40;;;;;;5030860;28;20261;-51
2022/01/29 12:06:19;;;;;;;2.90;1.90;;;26.00;50.30;;;;;;5022549;28;20223;-49
2022/01/29 12:09:24;;;;;;;4.88;2.00;;;26.00;50.40;;;;;;5019635;28;20283;-48
2022/01/29 12:12:19;;;;;;;4.68;2.10;;;26.00;50.50;;;;;;5023117;28;20843;-48
2022/01/29 12:14:51;;;;;;;3.13;1.90;;;25.90;50.50;;;;;;5029430;28;20640;-47
2022/01/29 12:17:44;;;;;;;4.45;1.85;;;25.90;50.50;;;;;;5023030;28;20261;-45
2022/01/29 12:20:18;;;;;;;3.03;1.88;;;25.80;50.50;;;;;;5031685;28;20398;-51
2022/01/29 12:22:50;;;;;;;3.53;2.13;;;25.80;50.50;;;;;;5033565;28;20650;-45
2022/01/29 12:25:23;;;;;;;3.67;1.95;;;25.80;50.50;;;;;;5039953;28;20667;-45
2022/01/29 12:27:55;;;;;;;4.20;2.25;;;25.80;50.60;;;;;;5030729;28;20196;-46
2022/01/29 12:30:29;;;;;;;2.60;1.90;;;25.70;50.60;;;;;;5030026;28;20620;-42
2022/01/29 12:33:01;;;;;;;3.05;2.15;;;25.70;50.60;;;;;;5047427;28;20204;-45
2022/01/29 12:35:42;;;;;;;3.35;1.77;;;25.70;50.60;;;;;;5037254;28;20261;-41
2022/01/29 12:38:14;;;;;;;3.90;1.85;;;25.70;50.70;;;;;;5035152;28;20203;-44
2022/01/29 12:40:55;;;;;;;2.92;1.83;;;25.60;50.60;;;;;;5047419;28;20280;-44
2022/01/29 12:43:28;;;;;;;4.88;2.05;;;25.60;50.60;;;;;;5042704;28;20195;-42
2022/01/29 12:46:10;;;;;;;3.95;1.88;;;25.60;50.70;;;;;;5042231;28;20224;-41
2022/01/29 12:48:41;;;;;;;3.58;2.03;;;25.60;50.80;;;;;;5048940;28;20191;-42
2022/01/29 12:51:14;;;;;;;3.45;2.00;;;25.50;50.70;;;;;;5039656;28;20253;-42
2022/01/29 12:53:56;;;;;;;4.30;2.17;;;25.50;50.80;;;;;;5043443;28;20900;-42
2022/01/29 12:56:33;;;;;;;4.25;2.03;;;25.50;50.80;;;;;;5036906;28;20629;-42
2022/01/29 12:59:05;;;;;;;2.67;1.83;;;25.50;50.80;;;;;;5036541;28;20218;-43
2022/01/29 13:01:36;;;;;;;3.55;1.75;;;25.40;50.80;;;;;;5024493;28;20644;-43
2022/01/29 13:04:08;;;;;;;3.53;1.90;;;25.40;50.90;;;;;;5042255;28;20249;-44
2022/01/29 13:06:41;;;;;;;2.58;1.50;;;25.30;50.80;;;;;;5036419;28;20270;-44
2022/01/29 13:09:19;;;;;;;4.32;2.30;;;25.30;50.80;;;;;;5048113;28;20664;-42
2022/01/29 13:11:51;;;;;;;3.25;1.85;;;25.30;50.90;;;;;;5035546;28;20192;-43
2022/01/29 13:14:22;;;;;;;2.08;1.40;;;25.30;50.80;;;;;;5033763;28;20199;-42
2022/01/29 13:16:55;;;;;;;3.50;1.60;;;25.30;50.90;;;;;;5032708;28;20553;-39
2022/01/29 13:19:26;;;;;;;3.95;1.67;;;25.20;50.90;;;;;;5034249;28;20216;-39
2022/01/29 13:22:03;;;;;;;3.53;1.90;;;25.20;50.90;;;;;;5032911;28;20729;-42
2022/01/29 13:24:38;;;;;;;2.75;1.90;;;25.20;50.90;;;;;;5033139;28;20234;-43
2022/01/29 13:27:11;;;;;;;4.35;2.13;;;25.20;50.90;;;;;;5035903;28;20291;-41